Time;durP1;ratioP1;P1;durP2;ratioP2;P2;SDS_P1;SDS_P2;PMS_P1;PMS_P2;Temp;Humidity;BMP_temperature;BMP_pressure;BME280_temperature;BME280_humidity;BME280_pressure;Samples;Min_cycle;Max_cycle;Signal;HPM_P1;HPM_P2
2022/03/26 00:01:03;;;;;;;3.25;2.13;;;;;;;11.96;43.08;102462.16;5197853;28;20066;-79
2022/03/26 00:03:35;;;;;;;5.85;2.55;;;;;;;11.89;43.34;102461.31;5199106;28;20045;-78
2022/03/26 00:06:07;;;;;;;3.50;3.15;;;;;;;11.83;43.46;102458.72;5201021;28;20051;-78
2022/03/26 00:08:37;;;;;;;2.55;2.35;;;;;;;11.71;43.38;102464.00;5182797;28;20075;-78
2022/03/26 00:11:08;;;;;;;3.75;3.45;;;;;;;11.72;43.57;102465.75;5185453;28;20253;-77
2022/03/26 00:13:39;;;;;;;10.82;5.75;;;;;;;11.71;43.71;102458.75;5184217;28;20075;-79
2022/03/26 00:16:10;;;;;;;2.90;2.63;;;;;;;11.70;43.59;102459.63;5215642;28;20036;-78
2022/03/26 00:18:40;;;;;;;4.55;3.30;;;;;;;11.70;43.76;102457.00;5196503;28;20132;-77
2022/03/26 00:21:11;;;;;;;6.65;3.92;;;;;;;11.69;43.73;102457.91;5210673;28;20369;-78
2022/03/26 00:23:41;;;;;;;2.05;1.85;;;;;;;11.70;43.75;102462.25;5187654;28;20591;-78
2022/03/26 00:26:12;;;;;;;2.00;1.90;;;;;;;11.63;43.43;102462.28;5215254;28;20104;-78
2022/03/26 00:28:43;;;;;;;4.18;2.92;;;;;;;11.46;44.43;102462.34;5180260;28;20108;-78
2022/03/26 00:31:13;;;;;;;4.75;4.28;;;;;;;11.48;44.01;102463.22;5182996;28;20035;-78
2022/03/26 00:33:44;;;;;;;4.55;4.22;;;;;;;11.25;44.38;102465.91;5215441;28;20041;-79
2022/03/26 00:36:14;;;;;;;7.40;4.53;;;;;;;11.37;43.97;102472.00;5200293;28;20621;-79
2022/03/26 00:38:45;;;;;;;3.88;3.55;;;;;;;11.35;44.00;102472.00;5215652;28;20045;-78
2022/03/26 00:41:16;;;;;;;3.47;3.15;;;;;;;11.40;44.06;102461.47;5207870;28;20039;-78
2022/03/26 00:43:46;;;;;;;3.15;2.95;;;;;;;11.42;44.35;102460.59;5185824;28;20037;-79
2022/03/26 00:46:17;;;;;;;6.57;4.85;;;;;;;11.41;44.73;102460.59;5182690;28;20511;-78
2022/03/26 00:48:47;;;;;;;2.83;2.63;;;;;;;11.41;44.31;102456.22;5213995;28;20121;-79
2022/03/26 00:51:18;;;;;;;6.07;4.18;;;;;;;11.43;44.80;102458.84;5196125;28;20059;-80
2022/03/26 00:53:49;;;;;;;4.15;3.03;;;;;;;11.45;44.54;102454.44;5213614;28;20037;-78
2022/03/26 00:56:20;;;;;;;4.57;4.18;;;;;;;11.44;44.57;102450.97;5215863;28;20033;-79
2022/03/26 00:58:50;;;;;;;7.85;3.28;;;;;;;11.42;44.93;102459.72;5197223;28;20054;-78
2022/03/26 01:01:21;;;;;;;4.30;3.47;;;;;;;11.39;44.98;102450.13;5197306;28;20108;-82
2022/03/26 01:03:52;;;;;;;3.75;3.00;;;;;;;11.30;44.90;102450.13;5196130;28;20036;-80
2022/03/26 01:06:22;;;;;;;4.85;4.20;;;;;;;11.28;44.88;102444.00;5214605;28;20452;-78
2022/03/26 01:08:54;;;;;;;2.67;2.47;;;;;;;11.24;44.72;102443.13;5180204;28;20047;-78
2022/03/26 01:11:25;;;;;;;2.95;2.75;;;;;;;11.24;45.17;102435.25;5183221;28;20068;-79
2022/03/26 01:13:56;;;;;;;2.10;2.00;;;;;;;11.19;45.05;102439.66;5218599;28;20056;-78
2022/03/26 01:16:30;;;;;;;3.20;3.00;;;;;;;11.13;45.40;102434.38;5199916;28;20074;-79
2022/03/26 01:19:00;;;;;;;5.25;2.50;;;;;;;11.14;45.06;102436.13;5199920;28;20040;-79
2022/03/26 01:21:31;;;;;;;5.13;4.57;;;;;;;11.13;45.32;102429.13;5195989;28;20442;-79
2022/03/26 01:24:02;;;;;;;3.58;2.97;;;;;;;11.10;45.28;102434.41;5186276;28;20045;-78
2022/03/26 01:26:33;;;;;;;8.10;4.13;;;;;;;11.09;45.64;102432.66;5199884;28;20747;-79
2022/03/26 01:29:07;;;;;;;4.28;3.55;;;;;;;11.12;46.02;102440.50;5214868;28;20065;-79
2022/03/26 01:31:38;;;;;;;6.38;2.83;;;;;;;11.07;45.42;102439.66;5205104;28;20039;-79
2022/03/26 01:34:09;;;;;;;2.40;2.30;;;;;;;11.02;45.78;102432.69;5212732;28;20499;-78
2022/03/26 01:36:39;;;;;;;4.05;3.38;;;;;;;11.01;45.69;102432.66;5216573;28;20127;-79
2022/03/26 01:39:10;;;;;;;7.00;5.03;;;;;;;10.99;46.08;102431.81;5215474;28;20617;-78
2022/03/26 01:41:41;;;;;;;3.00;2.53;;;;;;;11.00;46.05;102438.78;5186603;28;20043;-78
2022/03/26 01:44:15;;;;;;;4.10;3.00;;;;;;;10.93;45.80;102434.41;5230531;28;20041;-78
2022/03/26 01:46:51;;;;;;;3.92;3.35;;;;;;;10.91;46.06;102433.56;5216102;28;20101;-78
2022/03/26 01:49:22;;;;;;;7.50;4.93;;;;;;;10.86;46.29;102430.94;5211926;28;20033;-79
2022/03/26 01:51:53;;;;;;;2.25;2.05;;;;;;;10.79;45.78;102421.28;5201092;28;20028;-78
2022/03/26 01:54:26;;;;;;;13.32;2.80;;;;;;;10.79;45.93;102423.91;5220701;28;20037;-79
2022/03/26 01:56:57;;;;;;;2.67;2.47;;;;;;;10.78;46.04;102419.56;5202021;28;20584;-79
2022/03/26 01:59:28;;;;;;;3.30;3.05;;;;;;;10.75;46.21;102422.19;5205984;28;20076;-78
2022/03/26 02:01:58;;;;;;;4.13;3.03;;;;;;;10.70;46.30;102420.44;5214324;28;20024;-78
2022/03/26 02:04:34;;;;;;;9.63;4.45;;;;;;;10.70;45.98;102419.56;5186246;28;20041;-78
2022/03/26 02:07:05;;;;;;;3.85;3.45;;;;;;;10.67;46.21;102417.81;5199717;28;20120;-78
2022/03/26 02:09:38;;;;;;;3.03;2.83;;;;;;;10.49;46.07;102423.94;5199856;28;20049;-79
2022/03/26 02:12:21;;;;;;;2.22;1.95;;;;;;;10.46;46.31;102426.56;5204839;28;20017;-78
2022/03/26 02:14:53;;;;;;;2.05;1.95;;;;;;;10.45;46.36;102424.81;5186865;28;20050;-78
2022/03/26 02:17:24;;;;;;;3.60;3.28;;;;;;;10.44;46.13;102422.19;5201383;28;20033;-79
2022/03/26 02:19:56;;;;;;;4.88;3.95;;;;;;;10.42;46.26;102434.44;5201856;28;20087;-78
2022/03/26 02:22:28;;;;;;;2.05;1.95;;;;;;;10.38;46.35;102429.16;5201855;28;20034;-78
2022/03/26 02:24:59;;;;;;;4.15;3.13;;;;;;;10.37;46.58;102426.53;5206526;28;20024;-78
2022/03/26 02:27:30;;;;;;;7.10;4.07;;;;;;;10.33;46.88;102430.88;5221472;28;20418;-79
2022/03/26 02:30:01;;;;;;;3.28;2.83;;;;;;;10.28;46.56;102437.00;5218450;28;20074;-78
2022/03/26 02:32:32;;;;;;;4.30;3.90;;;;;;;10.23;46.70;102429.13;5227832;28;20048;-78
2022/03/26 02:35:04;;;;;;;4.57;4.13;;;;;;;10.18;46.72;102431.72;5187645;28;20028;-80
2022/03/26 02:37:38;;;;;;;4.88;3.40;;;;;;;10.15;47.19;102430.84;5187729;28;20686;-79
2022/03/26 02:40:09;;;;;;;7.10;3.88;;;;;;;10.18;47.23;102430.88;5220312;28;20091;-78
2022/03/26 02:42:39;;;;;;;4.05;2.97;;;;;;;10.18;46.94;102434.34;5204698;28;20021;-79
2022/03/26 02:45:10;;;;;;;10.18;3.40;;;;;;;10.12;46.86;102436.09;5205839;28;20027;-78
2022/03/26 02:47:40;;;;;;;3.38;3.08;;;;;;;10.10;47.13;102429.97;5187100;28;20056;-78
2022/03/26 02:50:12;;;;;;;5.18;3.55;;;;;;;10.08;47.59;102436.09;5192746;28;20522;-78
2022/03/26 02:52:43;;;;;;;4.32;4.03;;;;;;;10.08;47.55;102441.34;5187524;28;20055;-79
2022/03/26 02:55:14;;;;;;;5.40;3.30;;;;;;;10.07;47.64;102434.34;5205425;28;20030;-78
2022/03/26 02:57:46;;;;;;;2.42;2.33;;;;;;;10.02;47.34;102440.44;5221813;28;20064;-78
2022/03/26 03:00:16;;;;;;;5.90;4.10;;;;;;;9.98;47.85;102430.81;5203765;28;20021;-79
2022/03/26 03:02:47;;;;;;;3.85;2.70;;;;;;;9.92;48.02;102434.28;5208642;28;20134;-78
2022/03/26 03:05:18;;;;;;;6.57;4.18;;;;;;;9.92;47.88;102429.91;5204705;28;20029;-80
2022/03/26 03:07:49;;;;;;;4.88;4.45;;;;;;;9.88;47.51;102432.50;5185452;28;20056;-78
2022/03/26 03:10:20;;;;;;;2.90;2.70;;;;;;;9.82;47.68;102427.25;5237031;28;20594;-78
2022/03/26 03:12:50;;;;;;;2.70;2.20;;;;;;;9.84;48.03;102431.63;5204529;28;20223;-78
2022/03/26 03:15:26;;;;;;;3.08;2.90;;;;;;;9.82;47.88;102429.88;5213355;28;20071;-79
2022/03/26 03:17:57;;;;;;;3.83;3.50;;;;;;;9.73;47.90;102425.50;5219618;28;20037;-79
2022/03/26 03:20:27;;;;;;;5.75;5.13;;;;;;;9.74;48.00;102433.34;5204248;28;20118;-79
2022/03/26 03:22:59;;;;;;;4.07;3.75;;;;;;;9.71;47.51;102435.09;5183996;28;20702;-78
2022/03/26 03:25:30;;;;;;;4.05;3.75;;;;;;;9.74;48.31;102424.63;5186821;28;20033;-78
2022/03/26 03:28:02;;;;;;;3.10;2.90;;;;;;;9.74;48.72;102424.63;5219094;28;20102;-80
2022/03/26 03:30:33;;;;;;;4.35;3.75;;;;;;;9.74;48.30;102430.72;5202146;28;20097;-79
2022/03/26 03:33:04;;;;;;;3.95;3.65;;;;;;;9.73;48.65;102434.22;5188770;28;20079;-78
2022/03/26 03:35:35;;;;;;;3.80;3.45;;;;;;;9.71;48.41;102435.94;5185599;28;20430;-79
2022/03/26 03:38:07;;;;;;;3.55;3.30;;;;;;;9.72;48.38;102429.84;5217678;28;20064;-78
2022/03/26 03:40:37;;;;;;;3.45;3.22;;;;;;;9.74;48.73;102433.34;5184726;28;20052;-78
2022/03/26 03:43:08;;;;;;;4.15;2.60;;;;;;;9.72;48.82;102437.72;5219829;28;20049;-78
2022/03/26 03:45:39;;;;;;;3.85;3.55;;;;;;;9.70;48.94;102434.22;5204978;28;20037;-78
2022/03/26 03:48:09;;;;;;;2.67;2.47;;;;;;;9.66;48.62;102442.94;5200628;28;20047;-79
2022/03/26 03:50:40;;;;;;;6.35;4.30;;;;;;;9.61;48.73;102440.28;5234969;28;20029;-78
2022/03/26 03:53:10;;;;;;;8.13;2.88;;;;;;;9.62;48.75;102446.41;5203513;28;20761;-79
2022/03/26 03:55:41;;;;;;;4.13;2.85;;;;;;;9.56;49.33;102439.41;5234052;28;20518;-77
2022/03/26 03:58:14;;;;;;;4.72;4.32;;;;;;;9.54;49.06;102442.88;5184401;28;20041;-78
2022/03/26 04:00:44;;;;;;;6.55;3.95;;;;;;;9.55;48.70;102445.50;5204597;28;20077;-78
2022/03/26 04:03:17;;;;;;;3.97;3.60;;;;;;;9.54;49.01;102442.88;5200088;28;20060;-78
2022/03/26 04:05:47;;;;;;;7.47;4.85;;;;;;;9.48;49.03;102448.06;5234532;28;20025;-79
2022/03/26 04:08:20;;;;;;;5.85;3.42;;;;;;;9.52;49.65;102440.25;5239128;28;20205;-80
2022/03/26 04:10:50;;;;;;;1.33;1.33;;;;;;;9.46;48.84;102445.47;5217079;28;20027;-79
2022/03/26 04:13:23;;;;;;;5.20;4.72;;;;;;;9.40;48.64;102443.66;5199259;28;20025;-78
2022/03/26 04:15:54;;;;;;;4.32;4.00;;;;;;;9.39;48.95;102449.78;5187570;28;20598;-78
2022/03/26 04:18:24;;;;;;;2.60;2.45;;;;;;;9.32;48.53;102445.38;5216545;28;20049;-79
2022/03/26 04:20:56;;;;;;;5.25;4.03;;;;;;;9.30;48.91;102457.56;5220042;28;20684;-78
2022/03/26 04:23:27;;;;;;;4.95;3.50;;;;;;;9.32;49.28;102445.38;5218313;28;20097;-78
2022/03/26 04:25:58;;;;;;;4.43;3.92;;;;;;;9.27;49.38;102455.81;5221717;28;20167;-78
2022/03/26 04:28:28;;;;;;;2.70;2.45;;;;;;;9.25;49.15;102467.16;5203387;28;20052;-78
2022/03/26 04:30:59;;;;;;;2.40;1.52;;;;;;;9.24;49.57;102460.16;5215479;28;20043;-78
2022/03/26 04:33:30;;;;;;;2.80;2.55;;;;;;;9.22;49.53;102457.56;5206293;28;20079;-78
2022/03/26 04:36:01;;;;;;;2.72;2.50;;;;;;;9.18;49.27;102461.00;5221028;28;20029;-78
2022/03/26 04:38:31;;;;;;;6.03;3.92;;;;;;;9.15;49.23;102461.00;5214978;28;20049;-78
2022/03/26 04:41:02;;;;;;;3.63;2.85;;;;;;;9.16;49.34;102459.25;5184196;28;20033;-78
2022/03/26 04:43:32;;;;;;;2.88;2.55;;;;;;;9.17;49.69;102458.38;5200543;28;20076;-78
2022/03/26 04:46:05;;;;;;;2.85;2.72;;;;;;;9.09;49.96;102451.34;5217303;28;20045;-77
2022/03/26 04:48:39;;;;;;;3.80;3.40;;;;;;;9.04;49.29;102462.66;5183335;28;20052;-78
2022/03/26 04:51:12;;;;;;;41.15;4.30;;;;;;;9.06;49.79;102456.56;5216821;28;20049;-79
2022/03/26 04:53:42;;;;;;;2.72;2.53;;;;;;;9.07;50.25;102457.44;5181859;28;20118;-79
2022/03/26 04:56:14;;;;;;;10.57;3.95;;;;;;;9.01;49.34;102453.03;5204214;28;20025;-79
2022/03/26 04:58:44;;;;;;;2.80;2.60;;;;;;;8.97;49.63;102453.88;5199681;28;20972;-78
2022/03/26 05:01:15;;;;;;;3.38;3.00;;;;;;;8.96;49.90;102452.16;5184863;28;20037;-80
2022/03/26 05:03:46;;;;;;;3.80;3.50;;;;;;;8.91;49.62;102452.09;5201793;28;20502;-79
2022/03/26 05:06:17;;;;;;;2.35;2.25;;;;;;;8.90;49.75;102460.81;5204167;28;20562;-78
2022/03/26 05:08:48;;;;;;;3.35;3.15;;;;;;;8.85;49.51;102461.63;5196358;28;20048;-79
2022/03/26 05:11:19;;;;;;;6.47;3.63;;;;;;;8.80;49.60;102470.31;5217716;28;20025;-79
2022/03/26 05:13:49;;;;;;;5.38;4.97;;;;;;;8.62;49.50;102464.94;5199786;28;20539;-78
2022/03/26 05:16:20;;;;;;;1.98;1.88;;;;;;;8.67;49.96;102463.22;5217129;28;20100;-80
2022/03/26 05:18:50;;;;;;;2.55;2.35;;;;;;;8.60;49.44;102469.28;5190548;28;20099;-79
2022/03/26 05:21:21;;;;;;;5.28;3.85;;;;;;;8.68;49.88;102469.38;5218823;28;20055;-79
2022/03/26 05:23:52;;;;;;;2.92;2.65;;;;;;;8.63;50.01;102471.94;5216421;28;20069;-79
2022/03/26 05:26:23;;;;;;;5.28;4.47;;;;;;;8.46;50.19;102475.25;5197859;28;20089;-78
2022/03/26 05:28:54;;;;;;;5.22;3.90;;;;;;;8.56;50.67;102475.34;5217412;28;20036;-79
2022/03/26 05:31:24;;;;;;;3.45;3.22;;;;;;;8.57;50.26;102482.31;5217510;28;20098;-79
2022/03/26 05:33:54;;;;;;;3.83;3.53;;;;;;;8.39;50.21;102483.84;5215684;28;20144;-78
2022/03/26 05:36:26;;;;;;;8.68;6.95;;;;;;;8.37;50.24;102474.25;5185716;28;20037;-79
2022/03/26 05:38:56;;;;;;;5.93;4.32;;;;;;;8.37;50.18;102483.00;5183324;28;20064;-79
2022/03/26 05:41:27;;;;;;;3.70;3.40;;;;;;;8.38;50.84;102481.22;5224680;28;20036;-78
2022/03/26 05:43:57;;;;;;;3.55;3.35;;;;;;;8.31;50.05;102485.50;5224177;28;20044;-77
2022/03/26 05:46:28;;;;;;;5.05;4.55;;;;;;;8.30;50.61;102489.88;5221193;28;20056;-78
2022/03/26 05:48:58;;;;;;;4.45;4.03;;;;;;;8.34;50.61;102496.03;5203631;28;20041;-78
2022/03/26 05:51:29;;;;;;;2.50;2.33;;;;;;;8.33;50.60;102489.03;5219636;28;20045;-78
2022/03/26 05:53:59;;;;;;;3.13;2.92;;;;;;;8.35;50.31;102497.78;5202034;28;20167;-77
2022/03/26 05:56:36;;;;;;;2.72;2.53;;;;;;;8.30;50.77;102504.72;5220732;28;20025;-78
2022/03/26 05:59:10;;;;;;;2.08;1.92;;;;;;;8.33;50.99;102509.94;5220545;28;20122;-78
2022/03/26 06:01:40;;;;;;;4.05;3.65;;;;;;;8.31;50.62;102512.56;5185975;28;20036;-78
2022/03/26 06:04:11;;;;;;;3.20;2.90;;;;;;;8.31;51.22;102511.66;5198742;28;20029;-79
2022/03/26 06:06:42;;;;;;;36.30;5.32;;;;;;;8.30;50.98;102520.41;5217951;28;20056;-78
2022/03/26 06:09:15;;;;;;;4.80;3.13;;;;;;;8.30;51.12;102525.63;5216074;28;20198;-78
2022/03/26 06:11:45;;;;;;;1.60;1.50;;;;;;;8.29;51.23;102523.88;5187144;28;20033;-79
2022/03/26 06:14:18;;;;;;;4.18;3.88;;;;;;;8.27;50.87;102515.13;5198929;28;20055;-79
2022/03/26 06:16:48;;;;;;;3.07;2.77;;;;;;;8.27;51.33;102515.13;5202848;28;20021;-80
2022/03/26 06:19:19;;;;;;;2.80;2.60;;;;;;;8.28;51.63;102522.13;5199329;28;20049;-82
2022/03/26 06:22:17;;;;;;;4.82;4.10;;;;;;;8.25;51.47;102524.69;5104510;28;3369347;-82
2022/03/26 06:24:47;;;;;;;9.98;3.30;;;;;;;8.22;51.62;102522.06;5211558;28;20503;-79
2022/03/26 06:27:18;;;;;;;3.63;3.05;;;;;;;8.22;51.49;102529.91;5190910;28;20041;-80
2022/03/26 06:29:49;;;;;;;2.90;2.42;;;;;;;8.18;51.18;102524.63;5223682;28;20041;-79
2022/03/26 06:32:19;;;;;;;3.67;3.40;;;;;;;8.13;51.22;102528.94;5226658;28;20723;-80
2022/03/26 06:34:50;;;;;;;4.20;1.95;;;;;;;8.14;51.47;102535.88;5206339;28;20117;-80
2022/03/26 06:37:21;;;;;;;2.78;2.42;;;;;;;8.19;51.90;102538.56;5198646;28;20029;-78
2022/03/26 06:39:52;;;;;;;4.93;4.60;;;;;;;8.21;51.56;102542.06;5183166;28;20048;-78
2022/03/26 06:42:22;;;;;;;1.55;1.50;;;;;;;8.16;51.47;102539.41;5204220;28;20115;-78
2022/03/26 06:44:59;;;;;;;1.75;1.60;;;;;;;8.16;51.52;102547.25;5218274;28;20170;-77
2022/03/26 06:47:32;;;;;;;5.60;3.67;;;;;;;8.11;52.00;102543.72;5222816;28;20179;-78
2022/03/26 06:50:03;;;;;;;;;;;;;;;8.12;51.63;102550.69;5199524;28;20143;-77
2022/03/26 06:52:33;;;;;;;9.90;4.68;;;;;;;8.13;51.60;102539.38;5204080;28;20364;-79
2022/03/26 06:55:05;;;;;;;4.25;3.95;;;;;;;8.13;51.54;102542.00;5186884;28;20033;-77
2022/03/26 06:57:41;;;;;;;4.57;3.90;;;;;;;8.12;52.08;102541.97;5188855;28;20595;-78
2022/03/26 07:00:21;;;;;;;3.65;3.45;;;;;;;8.15;51.71;102537.66;5188215;28;20593;-80
2022/03/26 07:02:51;;;;;;;6.82;5.20;;;;;;;8.13;51.76;102543.72;5187340;28;20074;-79
2022/03/26 07:05:22;;;;;;;3.78;3.45;;;;;;;8.13;51.98;102544.63;5210277;28;20021;-79
2022/03/26 07:07:58;;;;;;;6.47;5.38;;;;;;;8.08;53.24;102546.28;5201370;28;20025;-79
2022/03/26 07:10:31;;;;;;;4.97;3.13;;;;;;;8.19;51.94;102549.00;5222340;28;20044;-82
2022/03/26 07:13:28;;;;;;;4.25;3.80;;;;;;;8.28;52.34;102548.28;5203635;28;20794;-80
2022/03/26 07:16:10;;;;;;;4.93;4.43;;;;;;;8.29;52.03;102555.25;5206468;28;20040;-80
2022/03/26 07:19:19;;;;;;;3.95;3.67;;;;;;;8.33;52.06;102546.56;5210449;28;20128;-80
2022/03/26 07:21:45;;;;;;;3.92;3.65;;;;;;;8.40;52.10;102553.63;5208766;28;20051;-78
2022/03/26 07:24:15;;;;;;;4.75;3.90;;;;;;;8.30;53.24;102557.88;5198134;28;20072;-77
2022/03/26 07:26:46;;;;;;;3.45;3.15;;;;;;;8.33;53.07;102567.50;5228136;28;20075;-79
2022/03/26 07:29:17;;;;;;;3.38;3.15;;;;;;;8.39;53.66;102570.19;5191200;28;20044;-80
2022/03/26 07:31:55;;;;;;;5.13;4.63;;;;;;;8.60;53.16;102568.72;5201219;28;20036;-79
2022/03/26 07:34:29;;;;;;;6.60;5.63;;;;;;;8.49;53.90;102577.31;5177472;28;20040;-78
2022/03/26 07:37:13;;;;;;;4.18;3.88;;;;;;;8.54;53.62;102572.13;5206735;28;20029;-79
2022/03/26 07:39:46;;;;;;;9.23;2.67;;;;;;;8.56;55.80;102586.13;5218371;28;20045;-79
2022/03/26 07:42:22;;;;;;;4.70;4.30;;;;;;;8.66;53.94;102585.38;5200886;28;20041;-79
2022/03/26 07:44:57;;;;;;;5.50;5.03;;;;;;;8.75;53.00;102584.56;5222062;28;20082;-80
2022/03/26 07:47:30;;;;;;;4.93;4.35;;;;;;;8.78;53.03;102584.63;5204261;28;20024;-78
2022/03/26 07:50:10;;;;;;;5.82;3.50;;;;;;;8.86;53.85;102575.97;5174941;28;20056;-79
2022/03/26 07:52:43;;;;;;;4.38;2.95;;;;;;;8.86;53.13;102579.44;5203289;28;20057;-81
2022/03/26 07:55:19;;;;;;;2.88;2.65;;;;;;;8.93;57.29;102583.00;5206116;28;20024;-79
2022/03/26 07:57:52;;;;;;;5.38;4.97;;;;;;;8.89;54.22;102583.81;5219930;28;20076;-77
2022/03/26 08:00:42;;;;;;;5.88;3.35;;;;;;;8.99;56.62;102583.06;5220098;28;20032;-79
2022/03/26 08:03:19;;;;;;;3.00;2.60;;;;;;;8.91;55.06;102582.09;5207570;28;20041;-80
2022/03/26 08:05:53;;;;;;;4.70;4.28;;;;;;;8.96;57.43;102580.44;5194257;28;20029;-81
2022/03/26 08:08:36;;;;;;;5.25;3.95;;;;;;;9.12;54.58;102587.56;5183941;28;20527;-82
2022/03/26 08:11:22;;;;;;;4.03;3.60;;;;;;;9.15;54.87;102586.72;5181691;28;20029;-81
2022/03/26 08:13:56;;;;;;;3.45;3.20;;;;;;;9.16;58.44;102592.81;5187426;28;20610;-80
2022/03/26 08:16:27;;;;;;;3.88;3.55;;;;;;;9.21;54.48;102585.88;5210574;28;20035;-80
2022/03/26 08:18:57;;;;;;;3.95;3.58;;;;;;;9.27;54.87;102578.06;5205132;28;20044;-80
2022/03/26 08:21:29;;;;;;;5.32;4.93;;;;;;;9.46;54.90;102581.72;5207358;28;20082;-80
2022/03/26 08:23:59;;;;;;;4.57;2.42;;;;;;;9.31;56.11;102585.06;5218539;28;20033;-80
2022/03/26 08:26:33;;;;;;;5.25;4.63;;;;;;;9.36;57.23;102578.16;5198072;28;20102;-80
2022/03/26 08:29:03;;;;;;;6.00;4.40;;;;;;;9.51;55.09;102574.75;5237109;28;20040;-80
2022/03/26 08:31:34;;;;;;;5.13;4.13;;;;;;;9.47;57.01;102579.94;5202899;28;20022;-82
2022/03/26 08:34:10;;;;;;;3.40;3.20;;;;;;;9.59;56.30;102582.69;5228167;28;20044;-81
2022/03/26 08:36:43;;;;;;;9.80;5.25;;;;;;;9.57;55.60;102574.81;5210116;28;20037;-82
2022/03/26 08:39:22;;;;;;;5.07;4.60;;;;;;;9.72;55.55;102588.88;5193335;28;20651;-82
2022/03/26 08:41:53;;;;;;;3.88;3.63;;;;;;;9.68;56.50;102582.75;5208029;28;20111;-80
2022/03/26 08:44:24;;;;;;;3.42;3.22;;;;;;;9.77;55.59;102580.19;5203042;28;20080;-80
2022/03/26 08:46:55;;;;;;;5.78;4.97;;;;;;;9.89;56.19;102586.34;5205521;28;20093;-79
2022/03/26 08:49:28;;;;;;;8.60;3.78;;;;;;;9.91;55.43;102587.25;5204044;28;20113;-80
2022/03/26 08:51:58;;;;;;;3.10;2.47;;;;;;;9.95;55.13;102585.50;5227842;28;20032;-80
2022/03/26 08:54:29;;;;;;;6.10;4.00;;;;;;;10.02;54.78;102593.44;5203701;28;20040;-81
2022/03/26 08:57:01;;;;;;;7.45;4.22;;;;;;;10.06;54.89;102584.69;5190727;28;20031;-81
2022/03/26 08:59:31;;;;;;;8.00;4.78;;;;;;;10.12;55.08;102583.84;5179168;28;20045;-82
2022/03/26 09:02:02;;;;;;;6.75;4.93;;;;;;;10.07;54.93;102591.69;5199518;28;20033;-80
2022/03/26 09:04:33;;;;;;;3.60;2.65;;;;;;;10.17;54.97;102586.50;5184604;28;20599;-80
2022/03/26 09:07:03;;;;;;;5.50;4.05;;;;;;;10.24;55.14;102581.28;5195188;28;20029;-80
2022/03/26 09:09:52;;;;;;;2.95;2.75;;;;;;;10.35;54.85;102576.09;5185069;28;20041;-81
2022/03/26 09:12:22;;;;;;;5.88;4.53;;;;;;;10.38;54.51;102578.72;5201461;28;20029;-79
2022/03/26 09:14:55;;;;;;;4.53;4.07;;;;;;;10.45;54.58;102591.91;5158505;23;20042;-80
2022/03/26 09:17:28;;;;;;;5.88;3.60;;;;;;;10.53;55.46;102584.94;5202607;28;20055;-79
2022/03/26 09:19:59;;;;;;;6.53;5.60;;;;;;;10.58;55.11;102580.56;5166745;28;20044;-80
2022/03/26 09:22:30;;;;;;;5.65;5.18;;;;;;;10.71;53.54;102584.09;5174087;28;20660;-79
2022/03/26 09:25:02;;;;;;;6.28;3.88;;;;;;;11.05;52.59;102581.53;5192714;28;20104;-81
2022/03/26 09:27:32;;;;;;;3.95;3.33;;;;;;;10.98;53.20;102591.13;5161853;28;20029;-81
2022/03/26 09:30:04;;;;;;;6.65;4.80;;;;;;;11.03;53.59;102581.50;5193913;28;20041;-80
2022/03/26 09:32:35;;;;;;;9.93;4.03;;;;;;;11.16;53.57;102581.50;5170468;28;20033;-81
2022/03/26 09:35:06;;;;;;;5.05;4.57;;;;;;;11.23;55.05;102583.25;5174915;28;20034;-80
2022/03/26 09:37:36;;;;;;;4.55;4.18;;;;;;;11.32;54.13;102587.66;5159931;28;20096;-81
2022/03/26 09:40:10;;;;;;;6.22;5.10;;;;;;;11.39;54.02;102585.88;5185462;28;20037;-80
2022/03/26 09:42:41;;;;;;;;;;;;;;;11.46;53.91;102592.88;5169850;28;20056;-82
2022/03/26 09:45:11;;;;;;;8.70;4.20;;;;;;;11.59;53.57;102575.34;5178978;28;19921;-81
2022/03/26 09:47:47;;;;;;;6.63;5.15;;;;;;;11.60;54.76;102591.13;5184745;28;20112;-82
2022/03/26 10:03:23;;;;;;;5.95;3.60;;;;;;;12.06;54.17;102581.41;4973013;29;20494;-81
2022/03/26 10:13:59;;;;;;;5.50;4.95;;;;;;;12.22;54.16;102574.34;5077161;28;20044;-81
2022/03/26 10:16:32;;;;;;;5.63;5.13;;;;;;;12.46;53.97;102575.09;5097179;28;20105;-82
2022/03/26 10:19:21;;;;;;;9.10;5.75;;;;;;;12.52;52.41;102570.66;5170201;28;20800;-79
2022/03/26 10:22:01;;;;;;;9.65;5.28;;;;;;;12.56;52.71;102584.72;5151014;28;20088;-79
2022/03/26 10:28:40;;;;;;;5.20;4.40;;;;;;;12.78;52.27;102581.94;5098183;28;20045;-80
2022/03/26 10:34:15;;;;;;;5.05;4.65;;;;;;;13.05;50.89;102570.31;5172981;28;20053;-81
2022/03/26 10:37:01;;;;;;;4.60;4.13;;;;;;;13.01;50.92;102568.59;5150630;28;20045;-80
2022/03/26 10:39:50;;;;;;;3.85;3.55;;;;;;;13.38;50.31;102570.91;5147327;28;20714;-80
2022/03/26 10:42:30;;;;;;;4.18;3.55;;;;;;;13.35;50.46;102563.00;5141691;28;20021;-80
2022/03/26 10:45:01;;;;;;;15.98;3.47;;;;;;;13.23;50.31;102564.00;5195387;28;20148;-79
2022/03/26 10:47:37;;;;;;;7.88;5.82;;;;;;;13.30;49.45;102562.19;5203540;28;20073;-80
2022/03/26 10:51:13;;;;;;;9.80;5.07;;;;;;;13.37;49.30;102554.22;5189735;28;20044;-79
2022/03/26 10:54:37;;;;;;;5.65;4.35;;;;;;;13.56;46.18;102546.16;5123149;28;20042;-81
2022/03/26 10:57:11;;;;;;;6.53;4.10;;;;;;;14.00;45.45;102560.63;5149978;28;20042;-81
2022/03/26 10:59:42;;;;;;;2.60;2.40;;;;;;;13.67;46.23;102552.19;5154736;28;20076;-81
2022/03/26 11:02:13;;;;;;;3.65;3.35;;;;;;;13.76;45.96;102553.84;5205477;28;20037;-79
2022/03/26 11:04:43;;;;;;;2.55;2.35;;;;;;;13.96;46.19;102548.38;5182133;28;20067;-78
2022/03/26 11:07:14;;;;;;;4.80;3.17;;;;;;;13.93;45.96;102542.22;5201059;28;20025;-77
2022/03/26 11:09:46;;;;;;;7.15;4.43;;;;;;;13.85;47.23;102537.91;5180282;28;20049;-80
2022/03/26 11:12:21;;;;;;;3.70;3.00;;;;;;;14.04;46.23;102544.75;5195702;28;20083;-80
2022/03/26 11:14:53;;;;;;;5.50;4.97;;;;;;;14.04;47.39;102535.06;5175085;28;20047;-80
2022/03/26 11:17:35;;;;;;;3.05;2.83;;;;;;;14.27;46.83;102544.44;5160501;28;20057;-79
2022/03/26 11:20:09;;;;;;;5.32;4.65;;;;;;;14.24;46.64;102541.84;5166113;28;20435;-80
2022/03/26 11:23:41;;;;;;;3.72;3.40;;;;;;;14.54;45.63;102527.34;5172055;28;20044;-80
2022/03/26 11:26:31;;;;;;;3.95;3.55;;;;;;;14.64;45.87;102530.72;5132302;28;20093;-80
2022/03/26 11:29:20;;;;;;;3.30;2.90;;;;;;;14.48;46.78;102527.41;5140897;28;20042;-79
2022/03/26 11:32:11;;;;;;;7.95;3.25;;;;;;;14.42;45.19;102523.09;5174499;28;20037;-78
2022/03/26 11:34:42;;;;;;;8.68;3.30;;;;;;;14.53;46.32;102522.97;5190005;28;20057;-79
2022/03/26 11:37:25;;;;;;;6.05;4.88;;;;;;;14.63;46.67;102521.03;5181017;28;20704;-80
2022/03/26 11:39:56;;;;;;;7.90;3.38;;;;;;;14.79;45.71;102514.66;5191391;28;20041;-79
2022/03/26 11:42:37;;;;;;;6.82;3.22;;;;;;;14.92;43.44;102514.44;5207743;28;20046;-79
2022/03/26 11:51:17;;;;;;;4.20;2.35;;;;;;;15.30;42.66;102507.63;5207061;28;20112;-81
2022/03/26 11:53:49;;;;;;;2.33;2.20;;;;;;;15.34;42.87;102493.41;5187567;28;20045;-80
2022/03/26 11:56:28;;;;;;;5.47;2.63;;;;;;;15.35;42.48;102491.66;5174163;28;20022;-80
2022/03/26 11:59:17;;;;;;;2.25;2.10;;;;;;;15.55;42.57;102492.13;5205136;28;20047;-79
2022/03/26 12:01:48;;;;;;;7.30;4.32;;;;;;;15.62;42.00;102502.63;5181339;28;20029;-79
2022/03/26 12:04:24;;;;;;;3.90;2.08;;;;;;;15.67;40.19;102491.03;5197814;28;20038;-79
2022/03/26 12:06:56;;;;;;;3.58;2.92;;;;;;;15.69;40.78;102494.50;5185091;28;20037;-79
2022/03/26 12:09:36;;;;;;;3.93;2.37;;;;;;;15.78;39.54;102482.00;5180373;28;20045;-79
2022/03/26 12:12:12;;;;;;;3.25;2.97;;;;;;;15.83;40.56;102494.28;5198384;28;20280;-79
2022/03/26 12:15:05;;;;;;;3.85;3.33;;;;;;;15.81;40.64;102481.94;5185826;28;20073;-79
2022/03/26 12:17:49;;;;;;;2.15;1.73;;;;;;;15.98;38.50;102490.44;5186248;28;20030;-79
2022/03/26 12:20:34;;;;;;;1.80;1.70;;;;;;;15.98;37.81;102478.94;5209357;28;20095;-80
2022/03/26 12:23:06;;;;;;;4.55;2.95;;;;;;;16.10;38.80;102486.66;5187677;28;20049;-80
2022/03/26 12:25:42;;;;;;;3.53;2.55;;;;;;;16.15;37.83;102479.47;5172473;28;20574;-80
2022/03/26 12:28:51;;;;;;;3.97;1.73;;;;;;;16.05;37.92;102478.81;5182604;28;20378;-80
2022/03/26 12:31:34;;;;;;;1.80;1.70;;;;;;;16.15;37.69;102466.22;5196641;28;20120;-80
2022/03/26 12:34:13;;;;;;;0.70;0.70;;;;;;;16.24;37.80;102465.13;5193711;28;20033;-80